sensor_id;sensor_type;location;lat;lon;timestamp;P1;durP1;ratioP1;P2;durP2;ratioP2
20559;SDS011;10438;51.454;6.718;2023-01-26T00:00:28;118.37;;;37.87;;
20559;SDS011;10438;51.454;6.718;2023-01-26T00:02:55;118.03;;;39.33;;
20559;SDS011;10438;51.454;6.718;2023-01-26T00:05:21;110.07;;;38.50;;
20559;SDS011;10438;51.454;6.718;2023-01-26T00:07:46;111.17;;;37.67;;
20559;SDS011;10438;51.454;6.718;2023-01-26T00:10:12;116.03;;;38.10;;
20559;SDS011;10438;51.454;6.718;2023-01-26T00:12:38;120.37;;;40.07;;
20559;SDS011;10438;51.454;6.718;2023-01-26T00:15:04;130.90;;;41.57;;
20559;SDS011;10438;51.454;6.718;2023-01-26T00:17:30;132.77;;;41.80;;
20559;SDS011;10438;51.454;6.718;2023-01-26T00:19:56;123.90;;;39.17;;
20559;SDS011;10438;51.454;6.718;2023-01-26T00:22:22;125.67;;;39.33;;
20559;SDS011;10438;51.454;6.718;2023-01-26T00:24:49;119.67;;;38.67;;
20559;SDS011;10438;51.454;6.718;2023-01-26T00:27:14;110.57;;;38.03;;
20559;SDS011;10438;51.454;6.718;2023-01-26T00:29:40;123.97;;;39.87;;
20559;SDS011;10438;51.454;6.718;2023-01-26T00:32:06;127.63;;;41.50;;
20559;SDS011;10438;51.454;6.718;2023-01-26T00:34:31;123.33;;;41.07;;
20559;SDS011;10438;51.454;6.718;2023-01-26T00:36:57;123.50;;;39.53;;
20559;SDS011;10438;51.454;6.718;2023-01-26T00:39:22;136.10;;;42.47;;
20559;SDS011;10438;51.454;6.718;2023-01-26T00:41:48;134.30;;;43.00;;
20559;SDS011;10438;51.454;6.718;2023-01-26T00:44:33;143.13;;;43.63;;
20559;SDS011;10438;51.454;6.718;2023-01-26T00:47:00;144.73;;;44.37;;
20559;SDS011;10438;51.454;6.718;2023-01-26T00:49:25;136.07;;;41.67;;
20559;SDS011;10438;51.454;6.718;2023-01-26T00:51:51;138.97;;;41.53;;
20559;SDS011;10438;51.454;6.718;2023-01-26T00:54:16;126.20;;;41.40;;
20559;SDS011;10438;51.454;6.718;2023-01-26T00:56:42;129.40;;;38.77;;
20559;SDS011;10438;51.454;6.718;2023-01-26T00:59:07;121.17;;;38.50;;
20559;SDS011;10438;51.454;6.718;2023-01-26T01:01:33;129.33;;;39.33;;
20559;SDS011;10438;51.454;6.718;2023-01-26T01:03:58;132.30;;;40.93;;
20559;SDS011;10438;51.454;6.718;2023-01-26T01:06:24;119.80;;;37.23;;
20559;SDS011;10438;51.454;6.718;2023-01-26T01:08:49;126.50;;;35.93;;
20559;SDS011;10438;51.454;6.718;2023-01-26T01:11:15;129.00;;;37.60;;
20559;SDS011;10438;51.454;6.718;2023-01-26T01:13:41;119.33;;;36.87;;
20559;SDS011;10438;51.454;6.718;2023-01-26T01:16:07;119.53;;;35.30;;
20559;SDS011;10438;51.454;6.718;2023-01-26T01:18:35;133.20;;;38.60;;
20559;SDS011;10438;51.454;6.718;2023-01-26T01:21:08;119.40;;;36.57;;
20559;SDS011;10438;51.454;6.718;2023-01-26T01:23:35;115.70;;;37.53;;
20559;SDS011;10438;51.454;6.718;2023-01-26T01:26:01;129.73;;;37.10;;
20559;SDS011;10438;51.454;6.718;2023-01-26T01:28:28;119.60;;;37.57;;
20559;SDS011;10438;51.454;6.718;2023-01-26T01:30:54;120.57;;;34.53;;
20559;SDS011;10438;51.454;6.718;2023-01-26T01:33:20;132.33;;;37.57;;
20559;SDS011;10438;51.454;6.718;2023-01-26T01:35:57;130.17;;;37.97;;
20559;SDS011;10438;51.454;6.718;2023-01-26T01:38:24;131.00;;;38.73;;
20559;SDS011;10438;51.454;6.718;2023-01-26T01:40:49;127.20;;;37.03;;
20559;SDS011;10438;51.454;6.718;2023-01-26T01:43:15;125.33;;;37.80;;
20559;SDS011;10438;51.454;6.718;2023-01-26T01:45:45;131.27;;;37.33;;
20559;SDS011;10438;51.454;6.718;2023-01-26T01:50:54;118.83;;;36.40;;
20559;SDS011;10438;51.454;6.718;2023-01-26T01:53:26;126.27;;;38.27;;
20559;SDS011;10438;51.454;6.718;2023-01-26T01:55:58;121.53;;;36.70;;
20559;SDS011;10438;51.454;6.718;2023-01-26T01:58:27;124.83;;;36.27;;
20559;SDS011;10438;51.454;6.718;2023-01-26T02:00:55;114.67;;;35.13;;
20559;SDS011;10438;51.454;6.718;2023-01-26T02:03:22;126.83;;;35.83;;
20559;SDS011;10438;51.454;6.718;2023-01-26T02:08:59;120.97;;;34.43;;
20559;SDS011;10438;51.454;6.718;2023-01-26T02:11:33;129.63;;;36.80;;
20559;SDS011;10438;51.454;6.718;2023-01-26T02:14:05;126.20;;;36.87;;
20559;SDS011;10438;51.454;6.718;2023-01-26T02:16:33;128.73;;;36.17;;
20559;SDS011;10438;51.454;6.718;2023-01-26T02:18:59;128.43;;;36.73;;
20559;SDS011;10438;51.454;6.718;2023-01-26T02:21:25;120.63;;;36.43;;
20559;SDS011;10438;51.454;6.718;2023-01-26T02:26:54;130.70;;;36.80;;
20559;SDS011;10438;51.454;6.718;2023-01-26T02:29:20;123.67;;;35.47;;
20559;SDS011;10438;51.454;6.718;2023-01-26T02:31:46;127.47;;;37.00;;
20559;SDS011;10438;51.454;6.718;2023-01-26T02:34:12;129.23;;;38.23;;
20559;SDS011;10438;51.454;6.718;2023-01-26T02:36:38;123.90;;;36.07;;
20559;SDS011;10438;51.454;6.718;2023-01-26T02:41:49;115.30;;;36.67;;
20559;SDS011;10438;51.454;6.718;2023-01-26T02:44:34;122.57;;;37.37;;
20559;SDS011;10438;51.454;6.718;2023-01-26T02:47:09;125.10;;;36.93;;
20559;SDS011;10438;51.454;6.718;2023-01-26T02:49:38;119.80;;;36.47;;
20559;SDS011;10438;51.454;6.718;2023-01-26T02:52:18;124.67;;;35.90;;
20559;SDS011;10438;51.454;6.718;2023-01-26T02:54:45;127.10;;;39.33;;
20559;SDS011;10438;51.454;6.718;2023-01-26T02:57:30;118.47;;;35.40;;
20559;SDS011;10438;51.454;6.718;2023-01-26T02:59:57;119.77;;;37.30;;
20559;SDS011;10438;51.454;6.718;2023-01-26T03:02:22;123.97;;;37.17;;
20559;SDS011;10438;51.454;6.718;2023-01-26T03:04:48;117.93;;;35.83;;
20559;SDS011;10438;51.454;6.718;2023-01-26T03:07:13;120.50;;;37.93;;
20559;SDS011;10438;51.454;6.718;2023-01-26T03:09:39;118.30;;;38.23;;
20559;SDS011;10438;51.454;6.718;2023-01-26T03:12:04;124.37;;;38.00;;
20559;SDS011;10438;51.454;6.718;2023-01-26T03:14:30;120.97;;;36.27;;
20559;SDS011;10438;51.454;6.718;2023-01-26T03:16:55;118.87;;;37.70;;
20559;SDS011;10438;51.454;6.718;2023-01-26T03:19:21;121.87;;;36.53;;
20559;SDS011;10438;51.454;6.718;2023-01-26T03:22:07;121.17;;;36.60;;
20559;SDS011;10438;51.454;6.718;2023-01-26T03:24:52;120.53;;;37.33;;
20559;SDS011;10438;51.454;6.718;2023-01-26T03:27:40;123.37;;;37.33;;
20559;SDS011;10438;51.454;6.718;2023-01-26T03:30:11;117.30;;;36.83;;
20559;SDS011;10438;51.454;6.718;2023-01-26T03:32:38;111.07;;;37.17;;
20559;SDS011;10438;51.454;6.718;2023-01-26T03:35:04;114.00;;;36.63;;
20559;SDS011;10438;51.454;6.718;2023-01-26T03:37:30;125.00;;;38.00;;
20559;SDS011;10438;51.454;6.718;2023-01-26T03:40:01;118.27;;;37.97;;
20559;SDS011;10438;51.454;6.718;2023-01-26T03:42:48;111.37;;;35.33;;
20559;SDS011;10438;51.454;6.718;2023-01-26T03:45:32;113.33;;;35.87;;
20559;SDS011;10438;51.454;6.718;2023-01-26T03:48:16;116.93;;;37.80;;
20559;SDS011;10438;51.454;6.718;2023-01-26T03:51:00;131.20;;;37.30;;
20559;SDS011;10438;51.454;6.718;2023-01-26T03:53:44;109.00;;;35.53;;
20559;SDS011;10438;51.454;6.718;2023-01-26T03:56:29;122.03;;;38.30;;
20559;SDS011;10438;51.454;6.718;2023-01-26T03:58:58;110.60;;;35.67;;
20559;SDS011;10438;51.454;6.718;2023-01-26T04:01:40;118.83;;;36.97;;
20559;SDS011;10438;51.454;6.718;2023-01-26T04:04:25;116.47;;;35.57;;
20559;SDS011;10438;51.454;6.718;2023-01-26T04:07:09;118.67;;;36.93;;
20559;SDS011;10438;51.454;6.718;2023-01-26T04:09:53;124.63;;;41.37;;
20559;SDS011;10438;51.454;6.718;2023-01-26T04:12:18;113.70;;;36.20;;
20559;SDS011;10438;51.454;6.718;2023-01-26T04:14:44;113.40;;;35.83;;
20559;SDS011;10438;51.454;6.718;2023-01-26T04:17:28;122.37;;;34.97;;
20559;SDS011;10438;51.454;6.718;2023-01-26T04:20:12;122.13;;;37.57;;
20559;SDS011;10438;51.454;6.718;2023-01-26T04:22:56;124.67;;;37.37;;
20559;SDS011;10438;51.454;6.718;2023-01-26T04:25:21;118.10;;;34.97;;
20559;SDS011;10438;51.454;6.718;2023-01-26T04:27:47;119.50;;;34.93;;
20559;SDS011;10438;51.454;6.718;2023-01-26T04:30:14;123.50;;;36.53;;
20559;SDS011;10438;51.454;6.718;2023-01-26T04:32:40;122.23;;;36.57;;
20559;SDS011;10438;51.454;6.718;2023-01-26T04:35:06;122.53;;;36.87;;
20559;SDS011;10438;51.454;6.718;2023-01-26T04:37:33;116.20;;;36.37;;
20559;SDS011;10438;51.454;6.718;2023-01-26T04:39:59;119.60;;;35.07;;
20559;SDS011;10438;51.454;6.718;2023-01-26T04:42:24;118.63;;;34.67;;
20559;SDS011;10438;51.454;6.718;2023-01-26T04:44:50;114.87;;;35.30;;
20559;SDS011;10438;51.454;6.718;2023-01-26T04:47:16;120.33;;;37.30;;
20559;SDS011;10438;51.454;6.718;2023-01-26T04:49:42;114.10;;;34.37;;
20559;SDS011;10438;51.454;6.718;2023-01-26T04:52:08;113.37;;;34.13;;
20559;SDS011;10438;51.454;6.718;2023-01-26T04:54:33;107.00;;;33.33;;
20559;SDS011;10438;51.454;6.718;2023-01-26T04:56:59;107.43;;;33.03;;
20559;SDS011;10438;51.454;6.718;2023-01-26T04:59:24;110.90;;;32.67;;
20559;SDS011;10438;51.454;6.718;2023-01-26T05:01:50;105.63;;;32.90;;
20559;SDS011;10438;51.454;6.718;2023-01-26T05:04:15;103.67;;;31.50;;
20559;SDS011;10438;51.454;6.718;2023-01-26T05:06:41;114.60;;;33.10;;
20559;SDS011;10438;51.454;6.718;2023-01-26T05:09:06;108.37;;;32.17;;
20559;SDS011;10438;51.454;6.718;2023-01-26T05:11:32;108.20;;;33.77;;
20559;SDS011;10438;51.454;6.718;2023-01-26T05:13:58;116.03;;;33.17;;
20559;SDS011;10438;51.454;6.718;2023-01-26T05:16:24;106.30;;;30.90;;
20559;SDS011;10438;51.454;6.718;2023-01-26T05:18:50;102.47;;;31.17;;
20559;SDS011;10438;51.454;6.718;2023-01-26T05:21:17;106.73;;;31.90;;
20559;SDS011;10438;51.454;6.718;2023-01-26T05:23:42;105.00;;;33.17;;
20559;SDS011;10438;51.454;6.718;2023-01-26T05:26:08;111.00;;;33.70;;
20559;SDS011;10438;51.454;6.718;2023-01-26T05:28:33;103.80;;;31.83;;
20559;SDS011;10438;51.454;6.718;2023-01-26T05:30:59;103.67;;;31.03;;
20559;SDS011;10438;51.454;6.718;2023-01-26T05:33:25;104.43;;;32.73;;
20559;SDS011;10438;51.454;6.718;2023-01-26T05:35:51;101.83;;;31.60;;
20559;SDS011;10438;51.454;6.718;2023-01-26T05:38:17;101.03;;;31.17;;
20559;SDS011;10438;51.454;6.718;2023-01-26T05:40:44;104.57;;;31.93;;
20559;SDS011;10438;51.454;6.718;2023-01-26T05:43:10;97.93;;;30.70;;
20559;SDS011;10438;51.454;6.718;2023-01-26T05:45:37;97.07;;;30.40;;
20559;SDS011;10438;51.454;6.718;2023-01-26T05:48:05;99.87;;;31.30;;
20559;SDS011;10438;51.454;6.718;2023-01-26T05:50:31;92.07;;;29.97;;
20559;SDS011;10438;51.454;6.718;2023-01-26T05:52:57;94.60;;;29.70;;
20559;SDS011;10438;51.454;6.718;2023-01-26T05:55:24;93.53;;;28.97;;
20559;SDS011;10438;51.454;6.718;2023-01-26T05:57:50;91.93;;;28.33;;
20559;SDS011;10438;51.454;6.718;2023-01-26T06:00:16;87.27;;;26.97;;
20559;SDS011;10438;51.454;6.718;2023-01-26T06:02:42;85.13;;;27.93;;
20559;SDS011;10438;51.454;6.718;2023-01-26T06:05:07;90.30;;;28.13;;
20559;SDS011;10438;51.454;6.718;2023-01-26T06:07:33;90.40;;;28.80;;
20559;SDS011;10438;51.454;6.718;2023-01-26T06:09:59;83.87;;;26.70;;
20559;SDS011;10438;51.454;6.718;2023-01-26T06:12:24;83.13;;;27.23;;
20559;SDS011;10438;51.454;6.718;2023-01-26T06:14:52;81.73;;;27.10;;
20559;SDS011;10438;51.454;6.718;2023-01-26T06:17:17;91.60;;;28.67;;
20559;SDS011;10438;51.454;6.718;2023-01-26T06:19:43;77.40;;;27.23;;
20559;SDS011;10438;51.454;6.718;2023-01-26T06:22:09;86.93;;;27.50;;
20559;SDS011;10438;51.454;6.718;2023-01-26T06:24:35;86.30;;;27.70;;
20559;SDS011;10438;51.454;6.718;2023-01-26T06:27:01;88.00;;;27.70;;
20559;SDS011;10438;51.454;6.718;2023-01-26T06:29:27;90.33;;;29.20;;
20559;SDS011;10438;51.454;6.718;2023-01-26T06:31:53;98.00;;;28.40;;
20559;SDS011;10438;51.454;6.718;2023-01-26T06:34:19;85.97;;;27.30;;
20559;SDS011;10438;51.454;6.718;2023-01-26T06:36:45;82.63;;;27.07;;
20559;SDS011;10438;51.454;6.718;2023-01-26T06:39:11;88.30;;;26.90;;
20559;SDS011;10438;51.454;6.718;2023-01-26T06:41:37;81.70;;;26.97;;
20559;SDS011;10438;51.454;6.718;2023-01-26T06:44:03;85.77;;;27.87;;
20559;SDS011;10438;51.454;6.718;2023-01-26T06:46:29;86.27;;;28.43;;
20559;SDS011;10438;51.454;6.718;2023-01-26T06:48:54;82.27;;;26.07;;
20559;SDS011;10438;51.454;6.718;2023-01-26T06:53:47;89.77;;;26.37;;
20559;SDS011;10438;51.454;6.718;2023-01-26T06:56:13;85.53;;;26.10;;
20559;SDS011;10438;51.454;6.718;2023-01-26T06:58:38;80.67;;;25.30;;
20559;SDS011;10438;51.454;6.718;2023-01-26T07:01:04;86.67;;;27.70;;
20559;SDS011;10438;51.454;6.718;2023-01-26T07:03:30;84.50;;;26.40;;
20559;SDS011;10438;51.454;6.718;2023-01-26T07:05:56;80.40;;;25.77;;
20559;SDS011;10438;51.454;6.718;2023-01-26T07:08:21;78.73;;;25.43;;
20559;SDS011;10438;51.454;6.718;2023-01-26T07:10:48;81.73;;;26.67;;
20559;SDS011;10438;51.454;6.718;2023-01-26T07:13:14;75.47;;;24.97;;
20559;SDS011;10438;51.454;6.718;2023-01-26T07:15:39;79.67;;;25.93;;
20559;SDS011;10438;51.454;6.718;2023-01-26T07:18:05;81.77;;;25.20;;
20559;SDS011;10438;51.454;6.718;2023-01-26T07:20:30;92.20;;;26.43;;
20559;SDS011;10438;51.454;6.718;2023-01-26T07:22:58;80.30;;;25.60;;
20559;SDS011;10438;51.454;6.718;2023-01-26T07:25:24;87.50;;;27.10;;
20559;SDS011;10438;51.454;6.718;2023-01-26T07:27:54;87.70;;;27.33;;
20559;SDS011;10438;51.454;6.718;2023-01-26T07:30:20;87.53;;;26.70;;
20559;SDS011;10438;51.454;6.718;2023-01-26T07:32:46;82.80;;;27.03;;
20559;SDS011;10438;51.454;6.718;2023-01-26T07:35:11;80.43;;;27.53;;
20559;SDS011;10438;51.454;6.718;2023-01-26T07:37:37;88.97;;;27.27;;
20559;SDS011;10438;51.454;6.718;2023-01-26T07:40:02;86.33;;;27.17;;
20559;SDS011;10438;51.454;6.718;2023-01-26T07:42:29;85.97;;;28.10;;
20559;SDS011;10438;51.454;6.718;2023-01-26T07:44:55;80.87;;;26.20;;
20559;SDS011;10438;51.454;6.718;2023-01-26T07:47:20;88.83;;;28.00;;
20559;SDS011;10438;51.454;6.718;2023-01-26T07:49:46;78.57;;;26.30;;
20559;SDS011;10438;51.454;6.718;2023-01-26T07:52:12;87.33;;;27.43;;
20559;SDS011;10438;51.454;6.718;2023-01-26T07:54:37;85.00;;;27.33;;
20559;SDS011;10438;51.454;6.718;2023-01-26T07:57:03;82.10;;;26.90;;
20559;SDS011;10438;51.454;6.718;2023-01-26T07:59:30;89.13;;;26.57;;
20559;SDS011;10438;51.454;6.718;2023-01-26T08:01:56;86.63;;;27.27;;
20559;SDS011;10438;51.454;6.718;2023-01-26T08:04:22;84.80;;;26.97;;
20559;SDS011;10438;51.454;6.718;2023-01-26T08:06:49;85.23;;;27.97;;
20559;SDS011;10438;51.454;6.718;2023-01-26T08:09:15;92.47;;;29.53;;
20559;SDS011;10438;51.454;6.718;2023-01-26T08:11:41;84.90;;;27.73;;
20559;SDS011;10438;51.454;6.718;2023-01-26T08:14:06;90.63;;;27.50;;
20559;SDS011;10438;51.454;6.718;2023-01-26T08:16:32;82.20;;;28.10;;
20559;SDS011;10438;51.454;6.718;2023-01-26T08:18:57;89.33;;;29.33;;
20559;SDS011;10438;51.454;6.718;2023-01-26T08:21:23;89.17;;;29.50;;
20559;SDS011;10438;51.454;6.718;2023-01-26T08:23:49;85.23;;;28.30;;
20559;SDS011;10438;51.454;6.718;2023-01-26T08:26:15;79.43;;;26.50;;
20559;SDS011;10438;51.454;6.718;2023-01-26T08:28:42;77.90;;;24.23;;
20559;SDS011;10438;51.454;6.718;2023-01-26T08:31:09;77.97;;;25.57;;
20559;SDS011;10438;51.454;6.718;2023-01-26T08:33:38;78.63;;;25.10;;
20559;SDS011;10438;51.454;6.718;2023-01-26T08:36:06;73.10;;;25.00;;
20559;SDS011;10438;51.454;6.718;2023-01-26T08:38:34;73.67;;;26.07;;
20559;SDS011;10438;51.454;6.718;2023-01-26T08:41:00;84.63;;;25.60;;
20559;SDS011;10438;51.454;6.718;2023-01-26T08:43:26;82.97;;;26.43;;
20559;SDS011;10438;51.454;6.718;2023-01-26T08:45:52;77.17;;;27.03;;
20559;SDS011;10438;51.454;6.718;2023-01-26T08:48:18;76.67;;;24.70;;
20559;SDS011;10438;51.454;6.718;2023-01-26T08:50:44;74.90;;;25.43;;
20559;SDS011;10438;51.454;6.718;2023-01-26T08:53:09;75.37;;;25.17;;
20559;SDS011;10438;51.454;6.718;2023-01-26T08:55:35;73.63;;;25.73;;
20559;SDS011;10438;51.454;6.718;2023-01-26T08:58:00;70.80;;;24.07;;
20559;SDS011;10438;51.454;6.718;2023-01-26T09:00:27;72.33;;;24.07;;
20559;SDS011;10438;51.454;6.718;2023-01-26T09:02:59;66.80;;;23.30;;
20559;SDS011;10438;51.454;6.718;2023-01-26T09:05:26;67.87;;;23.03;;
20559;SDS011;10438;51.454;6.718;2023-01-26T09:07:55;69.07;;;23.10;;
20559;SDS011;10438;51.454;6.718;2023-01-26T09:10:20;74.97;;;22.93;;
20559;SDS011;10438;51.454;6.718;2023-01-26T09:12:46;68.00;;;23.47;;
20559;SDS011;10438;51.454;6.718;2023-01-26T09:15:12;66.93;;;22.17;;
20559;SDS011;10438;51.454;6.718;2023-01-26T09:17:37;59.97;;;22.20;;
20559;SDS011;10438;51.454;6.718;2023-01-26T09:20:03;69.83;;;21.60;;
20559;SDS011;10438;51.454;6.718;2023-01-26T09:22:31;65.37;;;22.10;;
20559;SDS011;10438;51.454;6.718;2023-01-26T09:24:56;63.90;;;20.93;;
20559;SDS011;10438;51.454;6.718;2023-01-26T09:27:22;63.23;;;21.37;;
20559;SDS011;10438;51.454;6.718;2023-01-26T09:29:47;59.00;;;19.43;;
20559;SDS011;10438;51.454;6.718;2023-01-26T09:32:13;61.40;;;19.97;;
20559;SDS011;10438;51.454;6.718;2023-01-26T09:34:38;53.43;;;19.07;;
20559;SDS011;10438;51.454;6.718;2023-01-26T09:37:05;53.80;;;18.37;;
20559;SDS011;10438;51.454;6.718;2023-01-26T09:39:31;51.40;;;18.80;;
20559;SDS011;10438;51.454;6.718;2023-01-26T09:42:01;49.80;;;17.47;;
20559;SDS011;10438;51.454;6.718;2023-01-26T09:45:21;48.00;;;16.93;;
20559;SDS011;10438;51.454;6.718;2023-01-26T09:50:25;52.23;;;17.20;;
20559;SDS011;10438;51.454;6.718;2023-01-26T09:52:58;52.20;;;17.77;;
20559;SDS011;10438;51.454;6.718;2023-01-26T09:55:30;51.10;;;18.57;;
20559;SDS011;10438;51.454;6.718;2023-01-26T09:58:00;44.60;;;16.87;;
20559;SDS011;10438;51.454;6.718;2023-01-26T10:00:38;47.40;;;16.27;;
20559;SDS011;10438;51.454;6.718;2023-01-26T10:03:27;47.43;;;16.40;;
20559;SDS011;10438;51.454;6.718;2023-01-26T10:06:33;43.47;;;15.77;;
20559;SDS011;10438;51.454;6.718;2023-01-26T10:09:07;42.53;;;14.63;;
20559;SDS011;10438;51.454;6.718;2023-01-26T10:11:47;47.70;;;15.43;;
20559;SDS011;10438;51.454;6.718;2023-01-26T10:14:19;43.87;;;15.33;;
20559;SDS011;10438;51.454;6.718;2023-01-26T10:16:54;42.50;;;15.07;;
20559;SDS011;10438;51.454;6.718;2023-01-26T10:22:19;41.77;;;14.97;;
20559;SDS011;10438;51.454;6.718;2023-01-26T10:24:52;38.60;;;13.10;;
20559;SDS011;10438;51.454;6.718;2023-01-26T10:27:20;43.80;;;14.63;;
20559;SDS011;10438;51.454;6.718;2023-01-26T10:29:46;42.13;;;13.33;;
20559;SDS011;10438;51.454;6.718;2023-01-26T10:32:12;38.00;;;13.67;;
20559;SDS011;10438;51.454;6.718;2023-01-26T10:34:40;40.60;;;13.47;;
20559;SDS011;10438;51.454;6.718;2023-01-26T10:37:19;35.60;;;13.73;;
20559;SDS011;10438;51.454;6.718;2023-01-26T10:39:59;36.47;;;13.00;;
20559;SDS011;10438;51.454;6.718;2023-01-26T10:42:26;39.33;;;13.53;;
20559;SDS011;10438;51.454;6.718;2023-01-26T10:44:54;42.57;;;14.13;;
20559;SDS011;10438;51.454;6.718;2023-01-26T10:47:20;38.90;;;13.83;;
20559;SDS011;10438;51.454;6.718;2023-01-26T10:49:46;39.27;;;13.80;;
20559;SDS011;10438;51.454;6.718;2023-01-26T10:52:19;37.67;;;14.33;;
20559;SDS011;10438;51.454;6.718;2023-01-26T10:54:46;35.83;;;13.73;;
20559;SDS011;10438;51.454;6.718;2023-01-26T10:57:19;41.10;;;14.03;;
20559;SDS011;10438;51.454;6.718;2023-01-26T11:07:33;34.80;;;12.87;;
20559;SDS011;10438;51.454;6.718;2023-01-26T11:15:42;40.57;;;12.93;;
20559;SDS011;10438;51.454;6.718;2023-01-26T11:18:32;33.87;;;13.10;;
20559;SDS011;10438;51.454;6.718;2023-01-26T11:21:09;33.37;;;13.07;;
20559;SDS011;10438;51.454;6.718;2023-01-26T11:23:50;38.67;;;13.77;;
20559;SDS011;10438;51.454;6.718;2023-01-26T11:29:07;35.17;;;13.47;;
20559;SDS011;10438;51.454;6.718;2023-01-26T11:48:07;42.40;;;14.10;;
20559;SDS011;10438;51.454;6.718;2023-01-26T11:59:00;41.10;;;14.87;;
20559;SDS011;10438;51.454;6.718;2023-01-26T12:01:34;41.30;;;14.90;;
20559;SDS011;10438;51.454;6.718;2023-01-26T12:04:02;41.63;;;15.73;;
20559;SDS011;10438;51.454;6.718;2023-01-26T12:06:38;45.10;;;15.53;;
20559;SDS011;10438;51.454;6.718;2023-01-26T12:12:03;40.37;;;13.77;;
20559;SDS011;10438;51.454;6.718;2023-01-26T12:14:41;41.13;;;14.87;;
20559;SDS011;10438;51.454;6.718;2023-01-26T12:17:23;39.23;;;14.03;;
20559;SDS011;10438;51.454;6.718;2023-01-26T12:22:54;51.43;;;14.60;;
20559;SDS011;10438;51.454;6.718;2023-01-26T12:25:31;41.00;;;15.47;;
20559;SDS011;10438;51.454;6.718;2023-01-26T12:28:09;50.63;;;14.53;;
20559;SDS011;10438;51.454;6.718;2023-01-26T12:33:30;33.93;;;12.70;;
20559;SDS011;10438;51.454;6.718;2023-01-26T12:44:28;40.67;;;14.57;;
20559;SDS011;10438;51.454;6.718;2023-01-26T12:47:32;39.73;;;14.27;;
20559;SDS011;10438;51.454;6.718;2023-01-26T12:50:08;39.17;;;14.67;;
20559;SDS011;10438;51.454;6.718;2023-01-26T12:58:41;47.00;;;14.93;;
20559;SDS011;10438;51.454;6.718;2023-01-26T13:01:10;51.73;;;15.73;;
20559;SDS011;10438;51.454;6.718;2023-01-26T13:15:04;52.47;;;15.30;;
20559;SDS011;10438;51.454;6.718;2023-01-26T13:30:01;60.33;;;16.63;;
20559;SDS011;10438;51.454;6.718;2023-01-26T13:34:56;69.20;;;16.87;;
20559;SDS011;10438;51.454;6.718;2023-01-26T13:37:26;70.20;;;18.23;;
20559;SDS011;10438;51.454;6.718;2023-01-26T13:40:13;63.90;;;16.40;;
20559;SDS011;10438;51.454;6.718;2023-01-26T13:45:28;81.37;;;18.53;;
20559;SDS011;10438;51.454;6.718;2023-01-26T13:48:00;74.17;;;18.17;;
20559;SDS011;10438;51.454;6.718;2023-01-26T13:50:30;79.53;;;19.03;;
20559;SDS011;10438;51.454;6.718;2023-01-26T13:52:57;78.00;;;19.73;;
20559;SDS011;10438;51.454;6.718;2023-01-26T13:55:26;78.67;;;18.77;;
20559;SDS011;10438;51.454;6.718;2023-01-26T14:00:37;89.53;;;19.43;;
20559;SDS011;10438;51.454;6.718;2023-01-26T14:03:02;74.97;;;18.87;;
20559;SDS011;10438;51.454;6.718;2023-01-26T14:05:28;84.80;;;21.53;;
20559;SDS011;10438;51.454;6.718;2023-01-26T14:07:55;91.50;;;21.47;;
20559;SDS011;10438;51.454;6.718;2023-01-26T14:10:21;82.63;;;20.60;;
20559;SDS011;10438;51.454;6.718;2023-01-26T14:12:48;96.53;;;20.53;;
20559;SDS011;10438;51.454;6.718;2023-01-26T14:15:19;81.47;;;20.67;;
20559;SDS011;10438;51.454;6.718;2023-01-26T14:18:13;76.73;;;20.73;;
20559;SDS011;10438;51.454;6.718;2023-01-26T14:20:43;80.27;;;20.70;;
20559;SDS011;10438;51.454;6.718;2023-01-26T14:23:13;86.77;;;20.83;;
20559;SDS011;10438;51.454;6.718;2023-01-26T14:26:02;89.33;;;21.27;;
20559;SDS011;10438;51.454;6.718;2023-01-26T14:28:44;79.73;;;20.63;;
20559;SDS011;10438;51.454;6.718;2023-01-26T14:31:15;77.87;;;19.00;;
20559;SDS011;10438;51.454;6.718;2023-01-26T14:33:49;80.90;;;18.90;;
20559;SDS011;10438;51.454;6.718;2023-01-26T14:36:19;83.70;;;19.70;;
20559;SDS011;10438;51.454;6.718;2023-01-26T14:38:46;86.37;;;20.43;;
20559;SDS011;10438;51.454;6.718;2023-01-26T14:41:16;77.50;;;18.97;;
20559;SDS011;10438;51.454;6.718;2023-01-26T14:43:42;85.97;;;20.47;;
20559;SDS011;10438;51.454;6.718;2023-01-26T14:46:08;78.83;;;19.73;;
20559;SDS011;10438;51.454;6.718;2023-01-26T14:51:15;94.27;;;21.17;;
20559;SDS011;10438;51.454;6.718;2023-01-26T14:53:55;82.37;;;20.13;;
20559;SDS011;10438;51.454;6.718;2023-01-26T14:56:30;81.30;;;19.47;;
20559;SDS011;10438;51.454;6.718;2023-01-26T14:59:02;74.93;;;18.37;;
20559;SDS011;10438;51.454;6.718;2023-01-26T15:01:29;84.27;;;19.93;;
20559;SDS011;10438;51.454;6.718;2023-01-26T15:03:56;72.30;;;18.47;;
20559;SDS011;10438;51.454;6.718;2023-01-26T15:06:38;95.57;;;19.03;;
20559;SDS011;10438;51.454;6.718;2023-01-26T15:09:04;68.53;;;17.87;;
20559;SDS011;10438;51.454;6.718;2023-01-26T15:11:50;74.40;;;17.67;;
20559;SDS011;10438;51.454;6.718;2023-01-26T15:14:37;71.10;;;16.77;;
20559;SDS011;10438;51.454;6.718;2023-01-26T15:17:10;68.83;;;16.67;;
20559;SDS011;10438;51.454;6.718;2023-01-26T15:22:50;57.17;;;16.70;;
20559;SDS011;10438;51.454;6.718;2023-01-26T15:25:21;58.13;;;17.83;;
20559;SDS011;10438;51.454;6.718;2023-01-26T15:27:48;73.03;;;20.17;;
20559;SDS011;10438;51.454;6.718;2023-01-26T15:30:16;69.90;;;20.93;;
20559;SDS011;10438;51.454;6.718;2023-01-26T15:32:43;70.63;;;23.10;;
20559;SDS011;10438;51.454;6.718;2023-01-26T15:38:07;86.10;;;25.00;;
20559;SDS011;10438;51.454;6.718;2023-01-26T15:40:34;79.97;;;25.87;;
20559;SDS011;10438;51.454;6.718;2023-01-26T15:43:10;79.97;;;25.10;;
20559;SDS011;10438;51.454;6.718;2023-01-26T15:45:40;80.00;;;24.00;;
20559;SDS011;10438;51.454;6.718;2023-01-26T15:48:12;68.47;;;22.67;;
20559;SDS011;10438;51.454;6.718;2023-01-26T15:50:37;67.73;;;20.90;;
20559;SDS011;10438;51.454;6.718;2023-01-26T15:53:03;60.97;;;20.57;;
20559;SDS011;10438;51.454;6.718;2023-01-26T15:55:29;69.37;;;21.47;;
20559;SDS011;10438;51.454;6.718;2023-01-26T15:57:56;67.83;;;20.23;;
20559;SDS011;10438;51.454;6.718;2023-01-26T16:00:22;74.93;;;21.20;;
20559;SDS011;10438;51.454;6.718;2023-01-26T16:02:48;74.83;;;20.77;;
20559;SDS011;10438;51.454;6.718;2023-01-26T16:05:15;69.83;;;19.20;;
20559;SDS011;10438;51.454;6.718;2023-01-26T16:07:43;66.13;;;18.70;;
20559;SDS011;10438;51.454;6.718;2023-01-26T16:10:09;73.67;;;17.83;;
20559;SDS011;10438;51.454;6.718;2023-01-26T16:12:35;67.27;;;17.87;;
20559;SDS011;10438;51.454;6.718;2023-01-26T16:15:01;66.97;;;17.07;;
20559;SDS011;10438;51.454;6.718;2023-01-26T16:17:26;60.03;;;17.30;;
20559;SDS011;10438;51.454;6.718;2023-01-26T16:19:52;68.53;;;15.27;;
20559;SDS011;10438;51.454;6.718;2023-01-26T16:22:18;63.90;;;14.87;;
20559;SDS011;10438;51.454;6.718;2023-01-26T16:24:45;55.43;;;14.63;;
20559;SDS011;10438;51.454;6.718;2023-01-26T16:27:10;47.97;;;13.50;;
20559;SDS011;10438;51.454;6.718;2023-01-26T16:29:36;74.03;;;13.97;;
20559;SDS011;10438;51.454;6.718;2023-01-26T16:32:04;57.60;;;14.37;;